Waitati, New Zealand
Current Conditions -  °F | °C
As of 10:30 AM on Tuesday 25 Nov 2014 (Local Time) from NZCH Reporting Station
Overcast Overcast  
Wind Chill: 59°   Ceiling: 1400
Heat Index: 59°   Visibility: 6mi
Dew Point: 52°   Wind: 1mph
Humidity: 77%   Direction: 360°N
Pressure: 29.8"   Gusts: NA
Location:  45.75°S, 170.57°E
Report Text: NZCH 242130Z AUTO 36001KT 9999 OVC014/// 15/11 Q1009 NOSIG
Loading
Personal Weather Stations






























Interactive Weather Map New forecast layout! Learn more

10-Day Weather Forecast

Advertisements
Track Severe Weather on mobile